Besiktas Bosphorus — TCOG3 — position and weather

sailwx.info

Track history (hours):
 
Tides and Currents Weather Stations Pressure Air Temp Water Temp Dewpoint Dewpoint Depression Visibility Wind Speed Wind Dir Waves Ship Positions

Besiktas Bosphorus

Last reported at 2014-Jul-28 04:21 UTC. Time now 2014-Jul-30 23:21 UTC.
Position N 36°25' E 023°13'.

Length 274 m; draft 15.8 m.

Type: Tanker. MMSI: 271000817.

Date/timePositionNaut miles runAvg speedWind from/ knotsBaromVisibWave heightAir tempDewpointWater temp
2014-Jul-28 04:21N 36°25' E 023°13'1012.6
2014-Jul-28 03:33N 36°33' E 023°22'1312.7
2014-Jul-28 02:33N 36°44' E 023°28'1312.6
2014-Jul-28 01:32N 36°55' E 023°36'1212.8
2014-Jul-28 00:33N 37°06' E 023°44'1312.9
2014-Jul-27 23:33N 37°17' E 023°53'1312.8
2014-Jul-27 22:30N 37°28' E 024°02'2512.7
2014-Jul-27 20:33N 37°48' E 024°21'1211.9
2014-Jul-27 19:33N 37°54' E 024°34'6412.5
2014-Jul-27 14:24N 38°53' E 025°09'6512.4
2014-Jul-27 09:10N 39°51' E 025°46'158 5.9
2014-Jul-26 06:31N 40°57' E 028°55'5 5.4
2014-Jul-26 05:30N 41°01' E 028°60'28410.5
2014-Jul-25 02:29N 43°22' E 034°32'1312.3
2014-Jul-25 01:27N 43°28' E 034°47'1412.5
2014-Jul-25 00:19N 43°35' E 035°05'1012.5
2014-Jul-24 23:33N 43°39' E 035°16'2912.0
2014-Jul-24 21:07N 43°52' E 035°53'711.9
2014-Jul-24 20:33N 43°55' E 036°01'2512.1
2014-Jul-24 18:30N 44°07' E 036°32'3712.4
2014-Jul-24 15:32N 44°24' E 037°17'28 0.8
2014-Jul-23 02:32N 44°36' E 037°53'  
2014-Jul-19 11:33N 40°49' E 028°55'1 1.0
2014-Jul-19 10:33N 40°48' E 028°54'93 5.2
2014-Jul-18 16:33N 40°29' E 026°54'59 9.1
2014-Jul-18 10:08N 40°00' E 025°47'0 0.1
2014-Jul-18 09:32N 40°00' E 025°48'3 1.0
2014-Jul-18 06:31N 40°00' E 025°51'  
Track history (hours):
 
Tides and Currents Weather Stations Pressure Air Temp Water Temp Dewpoint Dewpoint Depression Visibility Wind Speed Wind Dir Waves Ship Positions

Besiktas Bosphorus

Last reported at 2014-Jul-28 04:21 UTC. Time now 2014-Jul-30 23:21 UTC.
Position N 36°25' E 023°13'.

Length 274 m; draft 15.8 m.

Type: Tanker. MMSI: 271000817.

Date/timePositionNaut miles runAvg speedWind from/ knotsBaromVisibWave heightAir tempDewpointWater temp
2014-Jul-28 04:21N 36°25' E 023°13'1012.6
2014-Jul-28 03:33N 36°33' E 023°22'1312.7
2014-Jul-28 02:33N 36°44' E 023°28'1312.6
2014-Jul-28 01:32N 36°55' E 023°36'1212.8
2014-Jul-28 00:33N 37°06' E 023°44'1312.9
2014-Jul-27 23:33N 37°17' E 023°53'1312.8
2014-Jul-27 22:30N 37°28' E 024°02'2512.7
2014-Jul-27 20:33N 37°48' E 024°21'1211.9
2014-Jul-27 19:33N 37°54' E 024°34'6412.5
2014-Jul-27 14:24N 38°53' E 025°09'6512.4
2014-Jul-27 09:10N 39°51' E 025°46'158 5.9
2014-Jul-26 06:31N 40°57' E 028°55'5 5.4
2014-Jul-26 05:30N 41°01' E 028°60'28410.5
2014-Jul-25 02:29N 43°22' E 034°32'1312.3
2014-Jul-25 01:27N 43°28' E 034°47'1412.5
2014-Jul-25 00:19N 43°35' E 035°05'1012.5
2014-Jul-24 23:33N 43°39' E 035°16'2912.0
2014-Jul-24 21:07N 43°52' E 035°53'711.9
2014-Jul-24 20:33N 43°55' E 036°01'2512.1
2014-Jul-24 18:30N 44°07' E 036°32'3712.4
2014-Jul-24 15:32N 44°24' E 037°17'28 0.8
2014-Jul-23 02:32N 44°36' E 037°53'  
2014-Jul-19 11:33N 40°49' E 028°55'1 1.0
2014-Jul-19 10:33N 40°48' E 028°54'93 5.2
2014-Jul-18 16:33N 40°29' E 026°54'59 9.1
2014-Jul-18 10:08N 40°00' E 025°47'0 0.1
2014-Jul-18 09:32N 40°00' E 025°48'3 1.0
2014-Jul-18 06:31N 40°00' E 025°51'  

Dump ship's entire track history